Terminal Aerodrome Forecast
Issued by NWS

Home | Current Version | Previous Version | Text Only | Print | Product List | Glossary On
Versions: 1 2 3 4 5 6 7 8 9 10 11 12 13 14
825
FTUS44 KEPZ 212320
TAFDMN
TAF
KDMN 212320Z 2200/2224 28024G38KT P6SM FEW050 BKN090
     FM220200 27016G24KT P6SM FEW100
     FM220900 26013KT P6SM SKC
     FM221500 26010KT P6SM SCT150=

USA.gov is the U.S. government's official web portal to all federal, state and local government web resources and services.